Time;durP1;ratioP1;P1;durP2;ratioP2;P2;SDS_P1;SDS_P2;PMS_P1;PMS_P2;Temp;Humidity;BMP_temperature;BMP_pressure;BME280_temperature;BME280_humidity;BME280_pressure;Samples;Min_cycle;Max_cycle;Signal;HPM_P1;HPM_P2
2021/07/30 00:00:04;;;;;;;60.88;29.30;;;;;;;19.14;80.39;98691.78;5093135;28;20047;-71
2021/07/30 00:02:32;;;;;;;62.50;28.58;;;;;;;19.10;80.55;98690.50;5093268;28;20051;-70
2021/07/30 00:04:58;;;;;;;57.88;28.95;;;;;;;19.13;80.36;98694.66;5093220;28;20047;-75
2021/07/30 00:07:25;;;;;;;60.97;29.20;;;;;;;19.11;80.42;98700.22;5092485;28;20079;-72
2021/07/30 00:09:52;;;;;;;53.50;27.67;;;;;;;19.10;80.39;98695.06;5092960;28;20055;-74
2021/07/30 00:12:18;;;;;;;53.05;27.52;;;;;;;19.09;80.59;98683.53;5093098;28;20048;-70
2021/07/30 00:14:43;;;;;;;56.97;27.60;;;;;;;19.06;80.71;98686.59;5092538;28;20092;-72
2021/07/30 00:17:09;;;;;;;58.17;27.38;;;;;;;19.06;80.62;98689.25;5092896;28;20050;-69
2021/07/30 00:19:35;;;;;;;52.85;27.83;;;;;;;19.07;80.48;98685.56;5093126;28;20204;-71
2021/07/30 00:22:01;;;;;;;48.70;25.83;;;;;;;19.08;80.51;98688.03;5092578;28;20109;-67
2021/07/30 00:24:26;;;;;;;51.95;26.38;;;;;;;19.07;80.47;98688.25;5092506;28;20063;-71
2021/07/30 00:26:52;;;;;;;48.63;26.45;;;;;;;19.03;80.42;98689.66;5074507;28;20125;-72
2021/07/30 00:29:18;;;;;;;50.42;25.92;;;;;;;19.03;80.48;98695.84;5092458;28;20056;-71
2021/07/30 00:31:44;;;;;;;56.40;27.30;;;;;;;18.98;80.64;98692.94;5092562;28;20040;-74
2021/07/30 00:34:10;;;;;;;53.30;26.02;;;;;;;18.97;80.71;98688.59;5092391;28;20040;-70
2021/07/30 00:36:36;;;;;;;57.83;28.65;;;;;;;19.00;80.78;98692.72;5092725;28;20635;-72
2021/07/30 00:39:02;;;;;;;55.08;25.08;;;;;;;19.02;80.73;98685.34;5091887;28;20056;-72
2021/07/30 00:41:28;;;;;;;57.45;26.88;;;;;;;18.97;80.76;98685.09;5092520;28;20047;-70
2021/07/30 00:43:54;;;;;;;49.45;25.63;;;;;;;18.96;80.88;98692.28;5092216;28;20036;-72
2021/07/30 00:46:20;;;;;;;54.38;26.02;;;;;;;18.98;80.82;98686.72;5092434;28;20043;-71
2021/07/30 00:48:45;;;;;;;53.25;26.23;;;;;;;18.97;80.99;98688.59;5073951;28;20052;-71
2021/07/30 00:51:12;;;;;;;49.00;26.15;;;;;;;18.95;80.94;98681.78;5092358;28;20047;-71
2021/07/30 00:53:47;;;;;;;53.67;26.77;;;;;;;18.94;81.00;98674.75;5074124;28;20489;-70
2021/07/30 00:56:13;;;;;;;45.20;24.83;;;;;;;18.96;81.01;98675.41;5075731;28;20036;-71
2021/07/30 00:58:39;;;;;;;50.28;26.60;;;;;;;18.97;80.76;98679.75;5092238;28;20465;-71
2021/07/30 01:01:06;;;;;;;50.08;25.25;;;;;;;18.97;80.75;98675.19;5092106;28;20516;-71
2021/07/30 01:03:34;;;;;;;55.25;26.70;;;;;;;18.98;80.79;98673.34;5091953;28;20043;-70
2021/07/30 01:06:00;;;;;;;;;;;;;;;18.98;80.94;98673.34;5091801;28;20044;-70
2021/07/30 01:08:25;;;;;;;49.78;25.35;;;;;;;18.97;80.98;98674.38;5091681;28;20438;-71
2021/07/30 01:10:52;;;;;;;51.17;26.25;;;;;;;19.00;80.97;98674.78;5091856;28;20130;-72
2021/07/30 01:13:18;;;;;;;46.80;25.80;;;;;;;19.01;80.92;98675.63;5091555;28;20405;-71
2021/07/30 01:15:50;;;;;;;46.63;25.00;;;;;;;19.03;80.74;98678.94;5073472;28;20131;-69
2021/07/30 01:18:16;;;;;;;52.63;26.48;;;;;;;19.05;80.76;98671.53;5092016;28;20132;-71
2021/07/30 01:20:44;;;;;;;50.13;25.92;;;;;;;19.04;80.79;98675.22;5091965;28;20051;-70
2021/07/30 01:23:10;;;;;;;47.03;25.17;;;;;;;19.05;80.71;98677.72;5091481;28;20052;-69
2021/07/30 01:25:37;;;;;;;41.25;24.08;;;;;;;19.05;80.79;98671.53;5073944;28;20082;-70
2021/07/30 01:28:03;;;;;;;45.03;25.05;;;;;;;19.05;80.64;98671.53;5091368;28;20044;-69
2021/07/30 01:30:30;;;;;;;52.83;26.27;;;;;;;19.01;80.71;98678.31;5091826;28;20036;-71
2021/07/30 01:32:56;;;;;;;51.23;26.43;;;;;;;18.96;81.07;98678.09;5073230;28;20143;-70
2021/07/30 01:35:22;;;;;;;55.97;29.33;;;;;;;18.92;81.12;98674.97;5056788;28;20139;-68
2021/07/30 01:37:48;;;;;;;63.60;29.33;;;;;;;18.90;80.84;98675.16;5091533;28;20048;-70
2021/07/30 01:40:15;;;;;;;60.92;29.88;;;;;;;18.90;80.89;98675.16;5091879;28;20047;-72
2021/07/30 01:42:41;;;;;;;59.58;28.83;;;;;;;18.91;80.98;98679.47;5091412;28;20500;-72
2021/07/30 01:45:08;;;;;;;59.72;30.05;;;;;;;18.94;80.83;98682.81;5091493;28;20058;-71
2021/07/30 01:47:35;;;;;;;63.43;31.37;;;;;;;18.96;80.97;98678.91;5091603;28;20035;-70
2021/07/30 01:50:01;;;;;;;72.13;32.75;;;;;;;18.96;80.74;98675.41;5092810;28;20299;-71
2021/07/30 01:52:28;;;;;;;62.17;30.38;;;;;;;19.03;80.38;98684.31;5095411;28;20038;-70
2021/07/30 01:54:54;;;;;;;66.72;31.10;;;;;;;19.02;80.54;98677.28;5095469;28;20185;-72
2021/07/30 01:57:20;;;;;;;65.57;30.05;;;;;;;19.03;80.56;98678.94;5095255;28;20135;-71
2021/07/30 01:59:45;;;;;;;72.47;32.70;;;;;;;19.01;80.44;98679.13;5095289;28;20050;-71
2021/07/30 02:02:12;;;;;;;58.20;29.67;;;;;;;19.05;80.48;98674.19;5095415;28;20036;-71
2021/07/30 02:04:38;;;;;;;59.83;30.05;;;;;;;19.08;80.43;98676.50;5095516;28;20127;-73
2021/07/30 02:07:04;;;;;;;62.63;29.50;;;;;;;19.14;80.53;98669.50;5094844;28;20067;-69
2021/07/30 02:09:33;;;;;;;59.50;30.48;;;;;;;19.19;80.31;98678.63;5077286;28;20048;-69
2021/07/30 02:11:59;;;;;;;71.38;34.28;;;;;;;19.22;79.98;98672.03;5095333;28;20043;-71
2021/07/30 02:14:28;;;;;;;81.70;37.55;;;;;;;19.29;79.69;98672.03;5077071;28;20071;-69
2021/07/30 02:17:00;;;;;;;98.28;44.85;;;;;;;19.34;79.34;98675.78;5095116;28;20036;-70
2021/07/30 02:19:26;;;;;;;93.20;44.25;;;;;;;19.40;79.03;98676.81;5095299;28;20036;-70
2021/07/30 02:21:53;;;;;;;118.28;56.05;;;;;;;19.44;78.86;98674.56;5076858;28;20394;-73
2021/07/30 02:24:20;;;;;;;119.97;55.80;;;;;;;19.50;78.65;98674.63;5095080;28;20224;-69
2021/07/30 02:26:46;;;;;;;129.68;62.67;;;;;;;19.55;78.60;98676.69;5094496;28;20536;-70
2021/07/30 02:29:12;;;;;;;132.07;62.38;;;;;;;19.50;78.41;98679.97;5094508;28;20089;-71
2021/07/30 02:31:38;;;;;;;126.18;59.67;;;;;;;19.56;78.18;98684.53;5094686;28;20071;-74
2021/07/30 02:34:04;;;;;;;114.32;53.38;;;;;;;19.67;78.28;98683.09;5094654;28;20050;-71
2021/07/30 02:36:30;;;;;;;127.30;60.05;;;;;;;19.77;77.80;98685.41;5094715;28;20412;-69
2021/07/30 02:38:56;;;;;;;148.77;71.60;;;;;;;19.76;77.48;98683.75;5094548;28;20047;-72
2021/07/30 02:41:21;;;;;;;156.50;77.35;;;;;;;19.76;77.15;98681.06;5094826;28;20036;-71
2021/07/30 02:43:47;;;;;;;155.10;73.40;;;;;;;19.81;77.06;98684.00;5094046;28;20052;-71
2021/07/30 02:46:16;;;;;;;136.85;66.97;;;;;;;19.89;76.67;98677.63;5094508;28;20047;-71
2021/07/30 02:48:45;;;;;;;134.23;66.13;;;;;;;20.06;76.46;98670.00;5094532;28;20040;-70
2021/07/30 02:51:12;;;;;;;148.10;69.22;;;;;;;20.15;76.37;98673.31;5094569;28;20086;-69
2021/07/30 02:53:39;;;;;;;129.07;64.88;;;;;;;20.25;75.76;98673.75;5094502;28;20040;-70
2021/07/30 02:56:05;;;;;;;122.32;61.75;;;;;;;20.36;75.05;98669.59;5094165;28;20120;-74
2021/07/30 02:58:31;;;;;;;113.33;55.83;;;;;;;20.32;74.67;98671.06;5094352;28;20052;-71
2021/07/30 03:00:58;;;;;;;108.43;53.67;;;;;;;20.40;74.94;98670.88;5093847;28;20109;-71
2021/07/30 03:03:24;;;;;;;111.82;53.90;;;;;;;20.44;74.42;98673.97;5094349;28;20040;-72
2021/07/30 03:05:50;;;;;;;102.13;50.33;;;;;;;20.56;74.26;98666.09;5093936;28;20051;-73
2021/07/30 03:08:16;;;;;;;99.22;52.13;;;;;;;20.64;73.67;98673.94;5094096;28;20110;-73
2021/07/30 03:10:42;;;;;;;98.63;50.97;;;;;;;20.67;73.38;98663.59;5094528;28;20040;-78
2021/07/30 03:13:07;;;;;;;102.55;51.30;;;;;;;20.63;73.50;98673.09;5093402;28;20036;-74
2021/07/30 03:15:33;;;;;;;99.55;51.90;;;;;;;20.68;73.65;98667.09;5075393;28;20127;-73
2021/07/30 03:17:59;;;;;;;105.03;48.70;;;;;;;20.87;72.94;98664.63;5074197;28;20047;-73
2021/07/30 03:20:25;;;;;;;89.05;47.85;;;;;;;21.09;72.34;98660.63;5093436;28;20048;-72
2021/07/30 03:22:51;;;;;;;96.22;47.50;;;;;;;21.29;71.38;98668.63;5092861;28;20044;-73
2021/07/30 03:25:17;;;;;;;92.53;45.15;;;;;;;21.43;70.97;98666.72;5093568;28;20047;-72
2021/07/30 03:27:42;;;;;;;86.47;44.38;;;;;;;21.56;70.18;98665.00;5093817;28;20047;-72
2021/07/30 03:30:11;;;;;;;99.45;48.08;;;;;;;21.67;70.08;98672.41;5094025;28;20044;-71
2021/07/30 03:32:37;;;;;;;99.28;49.45;;;;;;;21.76;69.55;98668.41;5093908;28;20040;-71
2021/07/30 03:35:04;;;;;;;88.00;45.13;;;;;;;21.76;69.29;98664.91;5093331;28;20397;-73
2021/07/30 03:37:29;;;;;;;88.18;46.78;;;;;;;21.67;69.68;98667.03;5094026;28;20055;-72
2021/07/30 03:39:55;;;;;;;81.40;41.08;;;;;;;21.70;69.64;98669.28;5093530;28;20032;-73
2021/07/30 03:42:22;;;;;;;94.90;45.30;;;;;;;21.65;69.72;98669.91;5092225;28;20043;-71
2021/07/30 03:44:48;;;;;;;76.68;41.30;;;;;;;21.74;69.13;98662.41;5095420;28;20511;-71
2021/07/30 03:47:14;;;;;;;84.47;43.75;;;;;;;21.83;69.19;98664.88;5096521;28;20488;-74
2021/07/30 03:49:39;;;;;;;77.13;39.40;;;;;;;21.95;68.52;98665.81;5093479;28;20089;-72
2021/07/30 03:52:05;;;;;;;70.38;37.70;;;;;;;21.92;68.39;98679.69;5092373;28;20139;-73
2021/07/30 03:54:31;;;;;;;72.30;37.85;;;;;;;21.84;68.87;98685.38;5093269;28;20040;-74
2021/07/30 03:56:57;;;;;;;70.07;35.28;;;;;;;21.70;68.92;98685.44;5092769;28;20123;-72
2021/07/30 03:59:23;;;;;;;68.57;36.25;;;;;;;21.69;69.05;98686.47;5093430;28;20477;-75
2021/07/30 04:01:49;;;;;;;63.28;33.70;;;;;;;21.76;69.25;98695.34;5105744;28;20036;-73
2021/07/30 04:04:15;;;;;;;66.15;34.28;;;;;;;21.86;68.74;98688.66;5113695;28;20044;-74
2021/07/30 04:06:43;;;;;;;59.63;31.92;;;;;;;21.72;69.21;98696.81;5113454;28;20556;-75
2021/07/30 04:09:14;;;;;;;64.30;33.22;;;;;;;21.79;69.22;98697.63;5113441;28;20047;-76
2021/07/30 04:11:40;;;;;;;63.28;32.90;;;;;;;21.91;68.45;98699.63;5113174;28;20450;-73
2021/07/30 04:14:06;;;;;;;68.07;35.70;;;;;;;22.00;68.28;98692.91;5112461;28;20043;-76
2021/07/30 04:16:36;;;;;;;59.83;31.35;;;;;;;22.19;67.74;98693.00;5107395;28;20043;-73
2021/07/30 04:19:02;;;;;;;60.95;31.00;;;;;;;22.32;67.41;98689.38;5090949;28;20085;-72
2021/07/30 04:21:28;;;;;;;61.97;33.10;;;;;;;22.48;66.94;98698.81;5092541;28;20116;-73
2021/07/30 04:23:54;;;;;;;55.78;31.35;;;;;;;22.41;66.89;98701.56;5092122;28;20090;-73
2021/07/30 04:26:20;;;;;;;55.50;31.85;;;;;;;22.34;67.04;98690.78;5091487;28;20055;-74
2021/07/30 04:28:46;;;;;;;59.25;30.98;;;;;;;22.42;67.05;98693.25;5091992;28;20538;-74
2021/07/30 04:31:12;;;;;;;53.58;29.70;;;;;;;22.57;66.47;98692.13;5091214;28;20111;-74
2021/07/30 04:33:38;;;;;;;53.83;31.80;;;;;;;22.65;66.10;98688.31;5091811;28;20138;-71
2021/07/30 04:36:04;;;;;;;55.75;31.05;;;;;;;22.68;66.03;98688.69;5091139;28;20044;-73
2021/07/30 04:38:30;;;;;;;54.33;30.33;;;;;;;22.61;66.28;98693.31;5092728;28;20048;-72
2021/07/30 04:40:56;;;;;;;53.67;28.55;;;;;;;22.66;66.28;98689.97;5092367;28;20119;-74
2021/07/30 04:43:22;;;;;;;50.70;27.55;;;;;;;22.75;65.79;98688.63;5091978;28;20043;-75
2021/07/30 04:45:47;;;;;;;77.78;40.28;;;;;;;22.66;66.01;98688.06;5091784;28;20046;-75
2021/07/30 04:48:13;;;;;;;58.03;30.23;;;;;;;22.63;66.13;98685.84;5092186;28;20036;-73
2021/07/30 04:50:39;;;;;;;46.83;27.80;;;;;;;22.69;65.87;98678.72;5092136;28;20108;-74
2021/07/30 04:53:05;;;;;;;63.40;33.65;;;;;;;22.62;66.06;98684.19;5092387;28;20377;-75
2021/07/30 04:55:31;;;;;;;52.67;28.52;;;;;;;22.71;65.75;98680.16;5092443;28;20047;-73
2021/07/30 04:57:57;;;;;;;54.40;27.02;;;;;;;22.71;65.88;98682.84;5092071;28;20040;-77
2021/07/30 05:00:23;;;;;;;45.25;26.38;;;;;;;22.67;65.87;98686.19;5092637;28;20127;-75
2021/07/30 05:02:53;;;;;;;49.63;26.70;;;;;;;22.72;65.71;98681.81;5092138;28;20127;-74
2021/07/30 05:05:19;;;;;;;45.63;25.98;;;;;;;22.81;65.65;98678.81;5091556;28;20044;-74
2021/07/30 05:07:44;;;;;;;55.33;28.38;;;;;;;22.62;65.86;98687.69;5091902;28;20128;-76
2021/07/30 05:10:11;;;;;;;53.38;27.15;;;;;;;22.45;66.78;98690.13;5073861;28;20540;-75
2021/07/30 05:12:37;;;;;;;47.45;27.10;;;;;;;22.53;66.83;98685.50;5091820;28;20139;-77
2021/07/30 05:15:04;;;;;;;49.05;27.42;;;;;;;22.45;67.61;98690.13;5091477;28;20108;-74
2021/07/30 05:17:30;;;;;;;58.63;29.10;;;;;;;22.36;68.09;98693.28;5092484;28;20150;-76
2021/07/30 05:19:56;;;;;;;53.97;28.27;;;;;;;22.27;68.20;98690.03;5091836;28;20083;-75
2021/07/30 05:22:22;;;;;;;53.42;27.23;;;;;;;22.25;68.50;98700.22;5092162;28;20067;-75
2021/07/30 05:24:48;;;;;;;51.38;28.05;;;;;;;22.18;68.61;98704.81;5094684;28;20039;-79
2021/07/30 05:27:14;;;;;;;55.38;27.70;;;;;;;22.22;69.05;98689.84;5095729;28;20044;-75
2021/07/30 05:29:40;;;;;;;147.95;72.95;;;;;;;22.25;69.01;98705.59;5078117;28;20052;-75
2021/07/30 05:32:09;;;;;;;50.40;27.58;;;;;;;22.20;69.45;98698.16;5095440;28;20554;-76
2021/07/30 05:34:34;;;;;;;58.80;29.17;;;;;;;22.27;69.24;98703.53;5095884;28;20578;-74
2021/07/30 05:37:00;;;;;;;45.65;27.42;;;;;;;22.29;69.62;98702.25;5095424;28;20052;-72
2021/07/30 05:39:26;;;;;;;48.33;26.52;;;;;;;22.30;70.44;98711.16;5095906;28;20044;-73
2021/07/30 05:41:52;;;;;;;49.50;27.65;;;;;;;22.30;72.00;98705.75;5095590;28;20392;-77
2021/07/30 05:44:18;;;;;;;44.95;25.80;;;;;;;22.36;72.18;98706.75;5095762;28;20046;-75
2021/07/30 05:46:44;;;;;;;53.30;26.27;;;;;;;22.48;72.41;98704.19;5096309;28;20044;-76
2021/07/30 05:49:10;;;;;;;44.20;25.55;;;;;;;22.58;72.05;98707.22;5095033;28;20517;-73
2021/07/30 05:51:37;;;;;;;44.85;24.17;;;;;;;22.57;71.94;98702.91;5096176;28;20068;-76
2021/07/30 05:54:03;;;;;;;40.60;21.88;;;;;;;22.55;71.36;98707.66;5077722;28;20044;-74
2021/07/30 05:56:29;;;;;;;38.33;21.42;;;;;;;22.49;70.93;98713.94;5095357;28;20519;-75
2021/07/30 05:58:56;;;;;;;42.40;24.30;;;;;;;22.37;70.68;98706.56;5095540;28;20051;-74
2021/07/30 06:01:22;;;;;;;44.80;22.83;;;;;;;22.40;71.21;98708.81;5095543;28;20044;-73
2021/07/30 06:03:47;;;;;;;43.42;23.98;;;;;;;22.54;70.87;98708.72;5095901;28;20043;-78
2021/07/30 06:06:13;;;;;;;44.38;22.85;;;;;;;22.63;69.93;98707.41;5095467;28;20066;-76
2021/07/30 06:08:40;;;;;;;43.33;23.33;;;;;;;22.74;69.19;98705.84;5076752;28;20043;-75
2021/07/30 06:11:06;;;;;;;47.97;26.83;;;;;;;22.81;69.22;98711.19;5095016;28;20043;-75
2021/07/30 06:13:31;;;;;;;56.53;31.33;;;;;;;22.81;69.22;98721.97;5060510;28;20048;-76
2021/07/30 06:15:57;;;;;;;46.17;27.85;;;;;;;22.85;69.22;98715.06;5095217;28;20071;-75
2021/07/30 06:18:23;;;;;;;42.33;25.50;;;;;;;23.00;69.23;98723.63;5095489;28;20040;-75
2021/07/30 06:20:50;;;;;;;40.97;22.55;;;;;;;22.83;69.28;98717.16;5095463;28;20413;-76
2021/07/30 06:23:15;;;;;;;38.00;23.83;;;;;;;22.79;68.75;98705.97;5095093;28;20160;-74
2021/07/30 06:25:41;;;;;;;39.47;22.73;;;;;;;22.91;68.48;98711.50;5076704;28;20048;-78
2021/07/30 06:28:07;;;;;;;41.30;23.60;;;;;;;22.97;68.49;98712.44;5076180;28;20094;-77
2021/07/30 06:30:33;;;;;;;38.88;22.40;;;;;;;22.83;68.64;98711.75;5094939;28;20068;-74
2021/07/30 06:32:59;;;;;;;39.83;22.00;;;;;;;22.72;68.69;98716.84;5094728;28;20400;-75
2021/07/30 06:35:26;;;;;;;42.38;22.48;;;;;;;22.61;69.22;98712.19;5094439;28;20043;-76
2021/07/30 06:37:52;;;;;;;;;;;;;;;22.51;69.56;98719.94;5077382;28;20056;-77
2021/07/30 06:40:18;;;;;;;38.50;22.20;;;;;;;22.53;69.57;98715.97;5094685;28;19916;-75
2021/07/30 06:42:43;;;;;;;45.63;25.42;;;;;;;22.44;70.40;98718.13;5094483;28;20040;-79
2021/07/30 06:45:09;;;;;;;38.20;23.15;;;;;;;22.49;70.54;98716.63;5094652;28;20044;-78
2021/07/30 06:47:36;;;;;;;42.85;23.45;;;;;;;22.46;70.17;98718.72;5094659;28;20052;-77
2021/07/30 06:50:05;;;;;;;39.47;20.63;;;;;;;22.39;69.96;98712.56;5094497;28;20536;-74
2021/07/30 06:52:31;;;;;;;33.38;18.88;;;;;;;22.24;69.78;98720.09;5094657;28;20048;-74
2021/07/30 06:54:57;;;;;;;34.28;18.73;;;;;;;22.20;70.29;98714.31;5076561;28;20036;-75
2021/07/30 06:57:22;;;;;;;33.72;19.45;;;;;;;22.28;70.06;98710.53;5094072;28;20066;-77
2021/07/30 06:59:49;;;;;;;31.15;18.70;;;;;;;22.28;69.82;98713.22;5094480;28;20044;-76
2021/07/30 07:02:15;;;;;;;37.58;19.10;;;;;;;22.21;70.01;98707.09;5094252;28;20108;-76
2021/07/30 07:04:41;;;;;;;28.65;17.67;;;;;;;22.17;70.39;98703.16;5094197;28;20043;-76
2021/07/30 07:07:07;;;;;;;32.38;18.50;;;;;;;22.17;70.20;98704.00;5093667;28;20055;-79
2021/07/30 07:09:32;;;;;;;30.00;17.25;;;;;;;22.25;70.19;98703.72;5094224;28;20053;-76
2021/07/30 07:11:58;;;;;;;27.98;16.23;;;;;;;22.23;69.57;98699.59;5093938;28;20044;-76
2021/07/30 07:14:24;;;;;;;32.88;17.55;;;;;;;22.34;69.26;98703.47;5076124;28;20032;-75
2021/07/30 07:16:50;;;;;;;28.67;16.60;;;;;;;22.38;69.33;98710.06;5094596;28;20081;-73
2021/07/30 07:19:16;;;;;;;32.20;17.92;;;;;;;22.32;69.17;98711.75;5094290;28;20130;-75
2021/07/30 07:21:42;;;;;;;27.08;15.68;;;;;;;22.18;68.82;98710.19;5075816;28;20040;-79
2021/07/30 07:24:08;;;;;;;34.65;17.67;;;;;;;22.25;69.21;98713.69;5094036;28;20047;-77
2021/07/30 07:26:38;;;;;;;26.77;14.65;;;;;;;22.26;69.32;98709.94;5093975;28;20523;-75
2021/07/30 07:29:05;;;;;;;30.48;16.90;;;;;;;22.35;69.54;98714.00;5092775;28;20050;-79
2021/07/30 07:31:31;;;;;;;26.27;13.73;;;;;;;22.41;69.72;98715.03;5093649;28;20126;-74
2021/07/30 07:33:57;;;;;;;28.92;17.38;;;;;;;22.46;70.48;98721.41;5093998;28;20048;-77
2021/07/30 07:36:23;;;;;;;36.60;26.90;;;;;;;22.56;70.71;98722.81;5093265;28;20044;-75
2021/07/30 07:38:49;;;;;;;26.08;14.32;;;;;;;22.66;70.12;98723.13;5094187;28;20585;-75
2021/07/30 07:41:15;;;;;;;24.23;14.38;;;;;;;22.72;70.09;98719.53;5093554;28;20083;-74
2021/07/30 07:43:44;;;;;;;25.08;13.07;;;;;;;22.53;69.70;98720.53;5093740;28;20048;-76
2021/07/30 07:46:10;;;;;;;26.83;14.57;;;;;;;22.49;69.92;98722.03;5093799;28;20130;-78
2021/07/30 07:48:35;;;;;;;24.60;13.95;;;;;;;22.43;70.26;98713.78;5092623;28;20150;-73
2021/07/30 07:51:01;;;;;;;25.60;14.00;;;;;;;22.42;70.33;98714.81;5094009;28;20489;-78
2021/07/30 07:53:27;;;;;;;23.70;13.60;;;;;;;22.35;70.22;98715.88;5092958;28;20504;-75
2021/07/30 07:56:03;;;;;;;24.50;12.93;;;;;;;22.47;69.96;98714.16;5093121;28;20046;-76
2021/07/30 07:58:30;;;;;;;28.02;16.70;;;;;;;22.60;70.74;98715.91;5093205;28;20088;-76
2021/07/30 08:00:56;;;;;;;23.33;13.60;;;;;;;22.60;70.08;98718.59;5093566;28;20524;-78
2021/07/30 08:03:22;;;;;;;24.50;13.10;;;;;;;22.64;69.23;98711.72;5093030;28;20381;-77
2021/07/30 08:05:48;;;;;;;27.88;14.10;;;;;;;22.65;69.03;98716.06;5075289;28;20047;-78
2021/07/30 08:08:14;;;;;;;23.48;13.63;;;;;;;22.57;69.07;98714.50;5092755;28;20052;-77
2021/07/30 08:10:40;;;;;;;22.23;12.82;;;;;;;22.72;68.51;98710.63;5074743;28;20113;-76
2021/07/30 08:13:06;;;;;;;22.45;13.27;;;;;;;22.84;68.23;98714.25;5093124;28;20507;-78
2021/07/30 08:15:31;;;;;;;22.10;13.75;;;;;;;23.13;67.82;98711.03;5075275;28;20105;-78
2021/07/30 08:17:57;;;;;;;25.20;13.65;;;;;;;23.14;67.13;98712.69;5093523;28;20485;-77
2021/07/30 08:20:23;;;;;;;22.02;13.57;;;;;;;23.21;67.56;98713.47;5075257;28;20450;-75
2021/07/30 08:22:49;;;;;;;21.88;13.27;;;;;;;23.72;66.19;98717.63;5093147;28;20051;-79
2021/07/30 08:25:15;;;;;;;21.23;12.70;;;;;;;24.51;63.64;98710.47;5092673;28;20500;-81
2021/07/30 08:27:41;;;;;;;22.42;12.68;;;;;;;25.04;60.92;98703.34;5075107;28;20040;-76
2021/07/30 08:30:07;;;;;;;19.77;11.88;;;;;;;25.56;59.54;98705.25;5092756;28;20048;-78
2021/07/30 08:32:34;;;;;;;25.33;12.70;;;;;;;25.93;57.14;98704.03;5092841;28;20093;-79
2021/07/30 08:35:00;;;;;;;22.20;13.87;;;;;;;25.83;57.76;98710.09;5092934;28;20048;-76
2021/07/30 08:37:26;;;;;;;21.42;12.38;;;;;;;25.77;58.33;98711.88;5092579;28;20526;-74
2021/07/30 08:39:52;;;;;;;29.98;13.50;;;;;;;25.64;58.01;98707.56;5092664;28;20040;-76
2021/07/30 08:42:19;;;;;;;25.48;12.88;;;;;;;25.47;59.06;98703.97;5092363;28;20389;-76
2021/07/30 08:44:45;;;;;;;21.77;12.82;;;;;;;25.08;59.56;98704.50;5092810;28;20075;-79
2021/07/30 08:47:13;;;;;;;23.73;12.98;;;;;;;24.77;60.50;98708.41;5074359;28;20386;-75
2021/07/30 08:49:38;;;;;;;23.60;12.80;;;;;;;24.68;60.32;98711.44;5092865;28;20078;-74
2021/07/30 08:52:12;;;;;;;24.25;12.85;;;;;;;24.52;60.37;98712.97;5092572;28;20044;-75
2021/07/30 08:54:39;;;;;;;25.27;13.32;;;;;;;24.34;60.61;98713.88;5092557;28;20036;-76
2021/07/30 08:57:09;;;;;;;24.05;12.52;;;;;;;24.14;61.68;98710.63;5092341;28;20059;-75
2021/07/30 08:59:38;;;;;;;19.25;11.60;;;;;;;24.09;61.56;98713.22;5092329;28;20044;-77
2021/07/30 09:02:05;;;;;;;20.48;11.52;;;;;;;23.98;61.21;98707.53;5092648;28;20040;-75
2021/07/30 09:04:31;;;;;;;18.60;10.68;;;;;;;23.85;61.11;98707.69;5092218;28;20048;-77
2021/07/30 09:06:59;;;;;;;20.52;11.05;;;;;;;23.84;60.94;98717.69;5092260;28;20050;-78
2021/07/30 09:09:25;;;;;;;18.77;10.93;;;;;;;23.80;61.09;98715.66;5092300;28;20048;-76
2021/07/30 09:11:55;;;;;;;20.45;12.38;;;;;;;23.78;61.67;98712.38;5092607;28;20050;-80
2021/07/30 09:14:35;;;;;;;21.38;12.52;;;;;;;23.83;61.38;98726.03;5093182;28;20071;-74
2021/07/30 09:17:02;;;;;;;21.55;12.88;;;;;;;23.73;62.09;98721.97;5094260;28;20044;-75
2021/07/30 09:19:27;;;;;;;26.17;13.52;;;;;;;23.64;62.32;98722.50;5094849;28;20372;-76
2021/07/30 09:22:03;;;;;;;20.73;11.90;;;;;;;23.80;62.75;98715.66;5074390;28;20489;-76
2021/07/30 09:24:34;;;;;;;21.45;11.57;;;;;;;23.89;62.58;98719.72;5057867;28;20036;-76
2021/07/30 09:27:00;;;;;;;19.58;12.10;;;;;;;23.97;62.00;98724.81;5092475;28;20522;-76
2021/07/30 09:29:28;;;;;;;28.20;16.83;;;;;;;23.73;62.64;98721.97;5092195;28;20485;-76
2021/07/30 09:31:56;;;;;;;22.42;13.15;;;;;;;23.79;62.49;98716.72;5092088;28;20362;-74
2021/07/30 09:34:21;;;;;;;;;;;;;;;23.79;62.53;98719.41;5092113;28;20471;-75
2021/07/30 09:36:49;;;;;;;25.70;14.15;;;;;;;23.72;62.54;98720.31;5092062;28;20023;-77
2021/07/30 09:39:16;;;;;;;22.92;13.15;;;;;;;23.94;62.48;98719.88;5091843;28;20370;-76
2021/07/30 09:41:53;;;;;;;23.25;14.45;;;;;;;23.84;62.69;98712.28;5092239;28;20051;-75
2021/07/30 09:44:19;;;;;;;33.38;16.75;;;;;;;24.15;62.17;98712.28;5091929;28;20552;-76
2021/07/30 09:47:02;;;;;;;25.27;14.27;;;;;;;24.36;61.58;98714.47;5092204;28;20125;-74
2021/07/30 09:49:45;;;;;;;25.38;14.35;;;;;;;24.58;60.90;98700.38;5091789;28;20048;-77
2021/07/30 09:52:13;;;;;;;35.67;16.95;;;;;;;24.89;60.32;98690.28;5091530;28;20131;-76
2021/07/30 09:55:01;;;;;;;30.70;16.48;;;;;;;24.83;60.42;98693.94;5091574;28;20104;-77
2021/07/30 09:57:45;;;;;;;28.85;16.52;;;;;;;24.93;60.01;98685.25;5073851;28;20048;-75
2021/07/30 10:00:16;;;;;;;31.73;15.40;;;;;;;25.04;59.38;98681.69;5073739;28;20040;-76
2021/07/30 10:02:43;;;;;;;28.95;15.93;;;;;;;25.13;58.90;98684.84;5091676;28;20493;-76
2021/07/30 10:05:10;;;;;;;26.35;14.00;;;;;;;25.11;58.27;98678.84;5073641;28;20073;-76
2021/07/30 10:07:37;;;;;;;26.60;14.40;;;;;;;25.25;58.06;98672.13;5091372;28;20067;-76
2021/07/30 10:10:08;;;;;;;29.98;14.88;;;;;;;25.65;57.32;98675.91;5091845;28;20044;-76
2021/07/30 10:12:37;;;;;;;22.75;14.05;;;;;;;26.12;55.37;98658.59;5077362;28;20417;-78
2021/07/30 10:15:04;;;;;;;21.63;13.32;;;;;;;26.30;53.74;98660.25;5096119;28;20111;-75
2021/07/30 10:17:35;;;;;;;22.15;13.35;;;;;;;26.46;53.02;98659.41;5095389;28;20089;-76
2021/07/30 10:20:06;;;;;;;22.88;11.07;;;;;;;26.42;52.51;98652.03;5095452;28;20048;-78
2021/07/30 10:22:38;;;;;;;27.08;10.55;;;;;;;26.40;51.71;98648.75;5077470;28;20068;-76
2021/07/30 10:25:05;;;;;;;26.00;12.07;;;;;;;26.34;52.80;98644.31;5076759;28;20138;-76
2021/07/30 10:27:31;;;;;;;28.38;11.80;;;;;;;26.35;53.04;98645.97;5076649;28;20536;-78
2021/07/30 10:30:15;;;;;;;29.42;12.77;;;;;;;26.52;52.93;98638.63;5077131;28;20097;-78
2021/07/30 10:32:47;;;;;;;24.55;11.43;;;;;;;26.61;53.03;98629.00;5095248;28;20092;-76
2021/07/30 10:35:41;;;;;;;39.17;14.82;;;;;;;26.62;53.31;98624.41;5095149;28;20044;-77
2021/07/30 10:38:20;;;;;;;37.70;14.43;;;;;;;26.83;52.94;98627.41;5077110;28;20132;-76
2021/07/30 10:40:58;;;;;;;35.08;14.02;;;;;;;26.77;52.56;98626.53;5094692;28;20435;-78
2021/07/30 10:43:33;;;;;;;37.92;14.10;;;;;;;27.05;52.83;98624.72;5094741;28;20046;-74
2021/07/30 10:46:07;;;;;;;48.17;15.68;;;;;;;27.21;51.91;98615.66;5095130;28;20095;-76
2021/07/30 10:48:42;;;;;;;47.85;17.75;;;;;;;27.23;51.91;98613.53;5095049;28;20040;-78
2021/07/30 10:51:27;;;;;;;45.80;19.27;;;;;;;27.34;52.64;98613.63;5095211;28;20044;-80
2021/07/30 10:54:00;;;;;;;44.30;21.13;;;;;;;27.28;51.88;98616.31;5094920;28;20412;-76
2021/07/30 10:56:31;;;;;;;44.58;20.35;;;;;;;27.10;51.58;98613.91;5094691;28;20047;-81
2021/07/30 10:59:01;;;;;;;41.42;19.75;;;;;;;27.07;51.93;98622.56;5094906;28;20537;-77
2021/07/30 11:01:29;;;;;;;37.08;18.85;;;;;;;27.32;50.55;98607.66;5094625;28;20047;-81
2021/07/30 11:04:04;;;;;;;41.30;16.85;;;;;;;27.64;49.36;98613.19;5094839;28;20040;-76
2021/07/30 11:06:39;;;;;;;38.45;15.60;;;;;;;27.96;48.51;98608.84;5094585;28;20050;-77
2021/07/30 11:09:05;;;;;;;30.65;14.77;;;;;;;28.35;47.58;98600.44;5059553;28;20412;-76
2021/07/30 11:11:50;;;;;;;26.60;13.40;;;;;;;28.31;46.69;98600.16;5094133;28;20044;-78
2021/07/30 11:14:30;;;;;;;61.03;33.03;;;;;;;28.11;46.50;98594.56;5076030;28;20044;-78
2021/07/30 11:17:00;;;;;;;27.50;13.05;;;;;;;27.92;46.67;98603.91;5094324;28;20044;-80